createdAt,value
2018-03-24T00:02:00.229Z,38.43
2018-03-24T00:04:27.727Z,38.83
2018-03-24T00:06:55.281Z,36.77
2018-03-24T00:09:22.854Z,34.87
2018-03-24T00:11:50.583Z,37.00
2018-03-24T00:14:18.302Z,37.07
2018-03-24T00:16:52.852Z,39.57
2018-03-24T00:19:20.548Z,37.90
2018-03-24T00:21:48.310Z,39.20
2018-03-24T00:24:15.999Z,38.73
2018-03-24T00:26:43.546Z,38.87
2018-03-24T00:29:11.107Z,42.23
2018-03-24T00:31:38.665Z,42.03
2018-03-24T00:34:06.207Z,43.20
2018-03-24T00:36:33.743Z,41.30
2018-03-24T00:39:01.240Z,39.90
2018-03-24T00:41:28.820Z,39.53
2018-03-24T00:43:56.330Z,43.07
2018-03-24T00:46:23.849Z,45.00
2018-03-24T00:48:51.429Z,40.00
2018-03-24T00:51:18.941Z,42.40
2018-03-24T00:53:46.703Z,42.37
2018-03-24T00:56:14.192Z,39.70
2018-03-24T00:58:41.731Z,40.97
2018-03-24T01:01:09.367Z,39.03
2018-03-24T01:03:37.822Z,43.43
2018-03-24T01:06:05.368Z,43.90
2018-03-24T01:08:32.875Z,37.73
2018-03-24T01:11:00.417Z,41.83
2018-03-24T01:13:27.927Z,39.27
2018-03-24T01:15:55.459Z,42.50
2018-03-24T01:18:22.957Z,42.20
2018-03-24T01:20:50.484Z,42.20
2018-03-24T01:23:17.996Z,41.10
2018-03-24T01:25:45.515Z,46.93
2018-03-24T01:28:13.052Z,46.83
2018-03-24T01:30:40.550Z,42.10
2018-03-24T01:33:08.123Z,39.37
2018-03-24T01:35:35.621Z,43.97
2018-03-24T01:38:03.117Z,40.80
2018-03-24T01:40:30.656Z,43.80
2018-03-24T01:42:58.176Z,40.73
2018-03-24T01:45:25.673Z,42.67
2018-03-24T01:47:53.186Z,48.57
2018-03-24T01:50:20.704Z,42.87
2018-03-24T01:52:48.189Z,40.63
2018-03-24T01:55:15.679Z,44.50
2018-03-24T01:57:43.182Z,44.47
2018-03-24T02:00:10.698Z,46.33
2018-03-24T02:02:38.181Z,47.33
2018-03-24T02:05:05.692Z,46.20
2018-03-24T02:07:33.196Z,47.10
2018-03-24T02:10:00.712Z,48.13
2018-03-24T02:12:28.233Z,42.33
2018-03-24T02:14:55.736Z,44.27
2018-03-24T02:17:23.260Z,47.20
2018-03-24T02:19:50.816Z,42.37
2018-03-24T02:22:18.338Z,46.73
2018-03-24T02:27:49.733Z,47.77
2018-03-24T02:30:17.226Z,47.63
2018-03-24T02:32:44.757Z,44.00
2018-03-24T02:35:12.292Z,49.80
2018-03-24T02:37:39.801Z,46.57
2018-03-24T02:40:07.314Z,42.93
2018-03-24T02:42:34.845Z,49.60
2018-03-24T02:45:02.387Z,46.77
2018-03-24T02:47:29.908Z,44.93
2018-03-24T02:49:57.405Z,45.87
2018-03-24T02:52:24.930Z,48.30
2018-03-24T02:54:52.470Z,43.80
2018-03-24T02:57:19.988Z,47.17
2018-03-24T02:59:47.520Z,46.57
2018-03-24T03:02:15.059Z,45.13
2018-03-24T03:04:42.558Z,51.83
2018-03-24T03:07:10.105Z,50.13
2018-03-24T03:09:37.635Z,46.83
2018-03-24T03:12:05.135Z,52.47
2018-03-24T03:14:32.678Z,45.67
2018-03-24T03:17:00.175Z,47.53
2018-03-24T03:19:27.690Z,39.67
2018-03-24T03:21:55.221Z,51.70
2018-03-24T03:24:22.739Z,49.13
2018-03-24T03:26:50.273Z,51.67
2018-03-24T03:29:17.809Z,48.03
2018-03-24T03:31:48.953Z,51.37
2018-03-24T03:34:16.450Z,51.17
2018-03-24T03:36:43.988Z,52.73
2018-03-24T03:39:11.540Z,48.57
2018-03-24T03:41:39.029Z,46.70
2018-03-24T03:44:06.567Z,44.00
2018-03-24T03:46:34.083Z,46.73
2018-03-24T03:49:01.607Z,44.03
2018-03-24T03:51:29.129Z,49.47
2018-03-24T03:53:56.661Z,50.27
2018-03-24T03:56:24.161Z,53.27
2018-03-24T03:58:51.700Z,53.17
2018-03-24T04:01:19.229Z,47.20
2018-03-24T04:03:46.752Z,47.03
2018-03-24T04:06:14.288Z,48.10
2018-03-24T04:08:41.784Z,51.20
2018-03-24T04:11:09.320Z,49.50
2018-03-24T04:13:36.862Z,49.27
2018-03-24T04:16:04.423Z,48.67
2018-03-24T04:18:31.996Z,47.83
2018-03-24T04:20:59.547Z,49.73
2018-03-24T04:23:27.109Z,53.43
2018-03-24T04:25:54.666Z,49.07
2018-03-24T04:28:22.223Z,46.53
2018-03-24T04:30:49.785Z,52.30
2018-03-24T04:33:17.356Z,47.10
2018-03-24T04:35:44.864Z,53.13
2018-03-24T04:38:12.429Z,50.97
2018-03-24T04:40:39.942Z,47.37
2018-03-24T04:43:07.455Z,46.73
2018-03-24T04:45:34.944Z,49.57
2018-03-24T04:48:02.456Z,45.37
2018-03-24T04:50:29.974Z,53.30
2018-03-24T04:52:57.464Z,47.67
2018-03-24T04:55:24.946Z,50.83
2018-03-24T04:57:52.479Z,55.00
2018-03-24T05:00:19.982Z,52.33
2018-03-24T05:02:47.502Z,49.37
2018-03-24T05:05:15.005Z,47.90
2018-03-24T05:07:42.516Z,48.80
2018-03-24T05:10:10.036Z,49.87
2018-03-24T05:12:37.533Z,49.50
2018-03-24T05:15:05.039Z,51.17
2018-03-24T05:17:32.550Z,52.63
2018-03-24T05:20:00.057Z,51.57
2018-03-24T05:22:27.555Z,56.53
2018-03-24T05:24:55.074Z,58.00
2018-03-24T05:27:22.576Z,55.10
2018-03-24T05:29:50.075Z,56.90
2018-03-24T05:32:17.591Z,55.87
2018-03-24T05:34:45.133Z,58.93
2018-03-24T05:37:12.718Z,49.33
2018-03-24T05:39:40.214Z,55.97
2018-03-24T05:42:07.734Z,51.27
2018-03-24T05:44:35.230Z,54.00
2018-03-24T05:47:02.742Z,50.37
2018-03-24T05:49:30.230Z,57.83
2018-03-24T05:51:57.763Z,51.97
2018-03-24T05:54:25.347Z,55.57
2018-03-24T05:56:52.814Z,58.80
2018-03-24T05:59:20.337Z,55.83
2018-03-24T06:01:47.830Z,61.30
2018-03-24T06:04:15.391Z,57.70
2018-03-24T06:06:42.903Z,61.00
2018-03-24T06:09:11.056Z,55.07
2018-03-24T06:11:38.553Z,56.97
2018-03-24T06:14:06.057Z,60.80
2018-03-24T06:16:33.568Z,57.37
2018-03-24T06:19:01.071Z,55.40
2018-03-24T06:21:28.565Z,55.10
2018-03-24T06:23:56.069Z,51.03
2018-03-24T06:26:23.578Z,56.90
2018-03-24T06:28:51.095Z,58.57
2018-03-24T06:31:20.397Z,55.77
2018-03-24T06:33:47.911Z,61.93
2018-03-24T06:36:15.404Z,54.30
2018-03-24T06:38:42.913Z,60.30
2018-03-24T06:41:10.420Z,57.93
2018-03-24T06:43:37.937Z,61.27
2018-03-24T06:46:05.922Z,54.30
2018-03-24T06:48:33.409Z,57.80
2018-03-24T06:51:00.903Z,62.40
2018-03-24T06:53:28.390Z,60.87
2018-03-24T06:55:55.892Z,59.30
2018-03-24T06:58:23.424Z,63.87
2018-03-24T07:00:50.931Z,60.37
2018-03-24T07:03:18.437Z,59.00
2018-03-24T07:05:45.946Z,61.20
2018-03-24T07:08:13.457Z,55.53
2018-03-24T07:10:40.964Z,65.03
2018-03-24T07:13:08.525Z,64.87
2018-03-24T07:15:36.964Z,62.67
2018-03-24T07:18:04.549Z,58.20
2018-03-24T07:20:32.221Z,60.47
2018-03-24T07:23:00.247Z,59.60
2018-03-24T07:25:27.814Z,59.03
2018-03-24T07:27:55.332Z,64.07
2018-03-24T07:30:23.251Z,62.37
2018-03-24T07:32:50.794Z,60.50
2018-03-24T07:35:18.286Z,59.93
2018-03-24T07:37:45.859Z,61.27
2018-03-24T07:40:15.184Z,60.03
2018-03-24T07:42:42.690Z,64.57
2018-03-24T07:45:10.284Z,57.50
2018-03-24T07:47:38.082Z,63.17
2018-03-24T07:50:05.595Z,69.43
2018-03-24T07:52:33.105Z,68.27
2018-03-24T07:55:00.598Z,62.13
2018-03-24T07:57:28.138Z,66.17
2018-03-24T07:59:55.647Z,66.60
2018-03-24T08:02:23.172Z,66.20
2018-03-24T08:04:50.661Z,63.47
2018-03-24T08:07:18.152Z,61.67
2018-03-24T08:09:45.648Z,63.97
2018-03-24T08:12:13.193Z,65.53
2018-03-24T08:14:40.692Z,63.10
2018-03-24T08:17:08.289Z,63.23
2018-03-24T08:19:35.795Z,65.13
2018-03-24T08:22:03.322Z,66.13
2018-03-24T08:24:30.869Z,64.17
2018-03-24T08:26:58.319Z,60.83
2018-03-24T08:29:25.822Z,68.53
2018-03-24T08:31:53.440Z,65.87
2018-03-24T08:34:20.948Z,70.77
2018-03-24T08:36:48.587Z,64.97
2018-03-24T08:39:16.323Z,66.60
2018-03-24T08:41:44.020Z,62.23
2018-03-24T08:44:11.560Z,67.80
2018-03-24T08:46:39.068Z,67.23
2018-03-24T08:49:06.579Z,62.37
2018-03-24T08:51:34.129Z,60.57
2018-03-24T08:54:01.654Z,63.47
2018-03-24T08:56:29.295Z,67.77
2018-03-24T08:58:56.835Z,65.37
2018-03-24T09:01:24.450Z,67.17
2018-03-24T09:03:51.972Z,62.67
2018-03-24T09:06:20.155Z,65.47
2018-03-24T09:08:52.577Z,65.60
2018-03-24T09:11:20.137Z,64.10
2018-03-24T09:13:47.682Z,66.67
2018-03-24T09:16:15.170Z,64.07
2018-03-24T09:18:42.665Z,63.30
2018-03-24T09:21:10.188Z,58.60
2018-03-24T09:23:37.733Z,60.77
2018-03-24T09:26:05.237Z,63.30
2018-03-24T09:28:32.806Z,62.63
2018-03-24T09:31:00.359Z,64.10
2018-03-24T09:33:27.918Z,56.80
2018-03-24T09:35:55.433Z,54.13
2018-03-24T09:38:22.963Z,57.60
2018-03-24T09:40:50.448Z,56.73
2018-03-24T09:43:17.955Z,56.63
2018-03-24T09:45:45.463Z,55.07
2018-03-24T09:48:12.940Z,52.37
2018-03-24T09:50:40.442Z,57.70
2018-03-24T09:53:08.035Z,55.50
2018-03-24T09:55:35.573Z,57.30
2018-03-24T09:58:03.103Z,55.80
2018-03-24T10:00:30.593Z,56.83
2018-03-24T10:02:58.117Z,58.63
2018-03-24T10:05:25.627Z,52.97
2018-03-24T10:07:53.163Z,56.43
2018-03-24T10:10:20.693Z,53.30
2018-03-24T10:12:48.190Z,47.50
2018-03-24T10:15:15.735Z,51.20
2018-03-24T10:17:43.251Z,48.57
2018-03-24T10:20:10.753Z,50.63
2018-03-24T10:25:42.784Z,48.47
2018-03-24T10:28:10.324Z,47.40
2018-03-24T10:30:37.875Z,49.23
2018-03-24T10:33:05.393Z,40.87
2018-03-24T10:35:32.909Z,41.47
2018-03-24T10:38:00.455Z,43.87
2018-03-24T10:40:27.946Z,44.63
2018-03-24T10:43:01.099Z,38.00
2018-03-24T10:45:28.636Z,37.30
2018-03-24T10:47:56.134Z,38.17
2018-03-24T10:50:23.645Z,32.90
2018-03-24T10:52:51.144Z,35.90
2018-03-24T10:55:18.665Z,34.93
2018-03-24T10:57:46.194Z,32.47
2018-03-24T11:00:13.703Z,28.63
2018-03-24T11:02:41.239Z,26.87
2018-03-24T11:05:08.768Z,28.43
2018-03-24T11:07:36.281Z,26.50
2018-03-24T11:10:03.817Z,24.33
2018-03-24T11:12:31.312Z,25.90
2018-03-24T11:14:58.807Z,24.23
2018-03-24T11:17:26.315Z,23.73
2018-03-24T11:19:53.872Z,27.47
2018-03-24T11:22:21.395Z,24.40
2018-03-24T11:24:48.920Z,22.77
2018-03-24T11:27:16.437Z,22.70
2018-03-24T11:29:43.929Z,24.20
2018-03-24T11:32:11.427Z,23.33
2018-03-24T11:34:38.929Z,23.80
2018-03-24T11:37:06.469Z,23.23
2018-03-24T11:39:34.010Z,23.47
2018-03-24T11:42:01.537Z,20.37
2018-03-24T11:44:29.046Z,20.83
2018-03-24T11:46:56.545Z,18.37
2018-03-24T11:49:24.104Z,20.13
2018-03-24T11:51:51.605Z,21.47
2018-03-24T11:54:30.806Z,19.33
2018-03-24T11:56:58.332Z,19.63
2018-03-24T11:59:25.865Z,18.80
2018-03-24T12:01:53.885Z,19.57
2018-03-24T12:04:21.385Z,19.23
2018-03-24T12:06:48.931Z,17.23
2018-03-24T12:09:16.456Z,19.30
2018-03-24T12:11:43.979Z,18.57
2018-03-24T12:14:11.523Z,18.87
2018-03-24T12:16:39.086Z,18.60
2018-03-24T12:19:06.583Z,18.43
2018-03-24T12:21:34.100Z,16.97
2018-03-24T12:24:01.624Z,18.83
2018-03-24T12:26:29.192Z,17.10
2018-03-24T12:28:57.367Z,19.27
2018-03-24T12:31:24.890Z,17.60
2018-03-24T12:33:52.409Z,19.10
2018-03-24T12:36:19.933Z,18.13
2018-03-24T12:38:47.432Z,16.87
2018-03-24T12:41:14.930Z,20.33
2018-03-24T12:43:42.439Z,19.63
2018-03-24T12:46:12.811Z,15.07
2018-03-24T12:48:40.309Z,17.50
2018-03-24T12:51:07.817Z,19.27
2018-03-24T12:53:35.459Z,20.67
2018-03-24T12:56:03.031Z,19.73
2018-03-24T12:58:30.548Z,19.40
2018-03-24T13:00:58.044Z,16.63
2018-03-24T13:03:25.583Z,17.83
2018-03-24T13:05:53.095Z,20.87
2018-03-24T13:08:20.646Z,19.47
2018-03-24T13:10:48.264Z,22.67
2018-03-24T13:13:15.763Z,16.40
2018-03-24T13:15:43.306Z,16.77
2018-03-24T13:18:10.843Z,20.73
2018-03-24T13:20:38.445Z,19.37
2018-03-24T13:23:05.941Z,20.73
2018-03-24T13:25:33.504Z,18.27
2018-03-24T13:28:01.087Z,20.73
2018-03-24T13:30:28.637Z,18.50
2018-03-24T13:32:56.156Z,21.03
2018-03-24T13:35:23.703Z,18.63
2018-03-24T13:37:51.284Z,18.13
2018-03-24T13:40:18.813Z,18.07
2018-03-24T13:42:46.313Z,18.40
2018-03-24T13:45:13.858Z,18.50
2018-03-24T13:47:41.358Z,18.70
2018-03-24T13:50:08.888Z,19.73
2018-03-24T13:52:36.402Z,18.07
2018-03-24T13:55:03.909Z,19.97
2018-03-24T13:57:31.446Z,21.40
2018-03-24T13:59:58.941Z,18.93
2018-03-24T14:02:26.468Z,20.03
2018-03-24T14:04:54.001Z,21.20
2018-03-24T14:07:21.492Z,19.57
2018-03-24T14:09:49.015Z,18.17
2018-03-24T14:12:16.525Z,21.97
2018-03-24T14:14:44.040Z,20.30
2018-03-24T14:17:11.576Z,20.90
2018-03-24T14:19:39.089Z,22.60
2018-03-24T14:22:06.606Z,19.87
2018-03-24T14:24:34.135Z,19.73
2018-03-24T14:27:01.682Z,20.37
2018-03-24T14:29:29.228Z,20.00
2018-03-24T14:31:56.770Z,18.27
2018-03-24T14:34:24.279Z,21.80
2018-03-24T14:36:51.779Z,22.27
2018-03-24T14:39:19.282Z,18.83
2018-03-24T14:41:46.806Z,19.43
2018-03-24T14:44:14.324Z,18.53
2018-03-24T14:46:41.830Z,18.50
2018-03-24T14:49:09.349Z,20.20
2018-03-24T14:51:36.933Z,18.37
2018-03-24T14:54:04.468Z,19.53
2018-03-24T14:56:31.957Z,18.60
2018-03-24T14:58:59.507Z,19.30
2018-03-24T15:01:27.067Z,20.63
2018-03-24T15:03:54.599Z,19.50
2018-03-24T15:06:22.094Z,19.20
2018-03-24T15:08:49.614Z,20.00
2018-03-24T15:11:17.131Z,22.97
2018-03-24T15:13:44.649Z,18.47
2018-03-24T15:16:12.164Z,21.17
2018-03-24T15:18:39.661Z,22.83
2018-03-24T15:21:07.226Z,20.67
2018-03-24T15:23:34.735Z,18.77
2018-03-24T15:26:02.265Z,19.97
2018-03-24T15:28:29.769Z,17.43
2018-03-24T15:31:10.008Z,20.53
2018-03-24T15:33:49.291Z,20.37
2018-03-24T15:36:28.419Z,20.50
2018-03-24T15:38:55.949Z,18.93
2018-03-24T15:41:23.467Z,20.23
2018-03-24T15:43:50.965Z,19.70
2018-03-24T15:46:18.471Z,21.10
2018-03-24T15:48:45.991Z,19.50
2018-03-24T15:51:13.556Z,16.83
2018-03-24T15:53:41.089Z,21.47
2018-03-24T15:56:08.609Z,21.00
2018-03-24T15:58:36.130Z,20.97
2018-03-24T16:01:03.657Z,17.50
2018-03-24T16:03:31.183Z,22.37
2018-03-24T16:05:58.725Z,21.50
2018-03-24T16:08:26.263Z,17.57
2018-03-24T16:10:53.800Z,21.20
2018-03-24T16:13:21.312Z,20.93
2018-03-24T16:15:48.821Z,19.13
2018-03-24T16:18:16.326Z,20.40
2018-03-24T16:20:43.942Z,17.27
2018-03-24T16:23:11.487Z,18.50
2018-03-24T16:25:39.000Z,20.90
2018-03-24T16:28:06.528Z,16.83
2018-03-24T16:30:34.045Z,21.27
2018-03-24T16:33:01.541Z,19.20
2018-03-24T16:35:29.086Z,19.03
2018-03-24T16:37:56.592Z,18.90
2018-03-24T16:40:24.123Z,18.80
2018-03-24T16:42:51.762Z,20.37
2018-03-24T16:45:19.283Z,18.87
2018-03-24T16:47:46.796Z,17.60
2018-03-24T16:50:14.339Z,21.87
2018-03-24T16:52:41.841Z,19.47
2018-03-24T16:55:09.379Z,20.73
2018-03-24T16:57:36.891Z,22.00
2018-03-24T17:00:04.432Z,19.60
2018-03-24T17:02:31.971Z,19.13
2018-03-24T17:04:59.486Z,22.60
2018-03-24T17:07:26.985Z,24.83
2018-03-24T17:09:54.500Z,23.73
2018-03-24T17:12:22.019Z,25.97
2018-03-24T17:14:49.493Z,19.03
2018-03-24T17:17:16.999Z,22.37
2018-03-24T17:19:44.526Z,22.30
2018-03-24T17:22:12.046Z,17.87
2018-03-24T17:24:39.551Z,18.97
2018-03-24T17:27:07.064Z,19.00
2018-03-24T17:29:34.589Z,18.67
2018-03-24T17:32:02.165Z,18.37
2018-03-24T17:34:29.716Z,17.97
2018-03-24T17:36:57.232Z,21.83
2018-03-24T17:39:24.764Z,18.90
2018-03-24T17:41:52.279Z,18.50
2018-03-24T17:44:19.772Z,19.43
2018-03-24T17:46:47.299Z,18.50
2018-03-24T17:49:15.813Z,18.53
2018-03-24T17:51:44.580Z,20.50
2018-03-24T17:54:15.031Z,20.53
2018-03-24T17:56:42.639Z,24.10
2018-03-24T17:59:10.165Z,21.50
2018-03-24T18:01:37.658Z,19.03
2018-03-24T18:04:05.240Z,22.27
2018-03-24T18:06:32.800Z,20.33
2018-03-24T18:09:00.378Z,20.03
2018-03-24T18:11:28.010Z,19.70
2018-03-24T18:13:55.508Z,21.30
2018-03-24T18:16:23.007Z,22.33
2018-03-24T18:18:50.524Z,19.83
2018-03-24T18:21:18.042Z,22.17
2018-03-24T18:23:45.533Z,19.30
2018-03-24T18:26:13.094Z,22.37
2018-03-24T18:28:40.626Z,18.27
2018-03-24T18:31:08.394Z,19.63
2018-03-24T18:33:35.903Z,20.17
2018-03-24T18:36:03.418Z,20.50
2018-03-24T18:38:30.928Z,18.70
2018-03-24T18:40:58.442Z,19.50
2018-03-24T18:43:25.945Z,21.37
2018-03-24T18:45:53.489Z,19.90
2018-03-24T18:48:21.011Z,18.40
2018-03-24T18:50:48.528Z,18.53
2018-03-24T18:53:16.017Z,19.03
2018-03-24T18:55:43.542Z,16.37
2018-03-24T18:58:11.033Z,17.07
2018-03-24T19:00:38.651Z,17.07
2018-03-24T19:03:06.275Z,21.73
2018-03-24T19:05:33.785Z,19.73
2018-03-24T19:08:01.304Z,18.80
2018-03-24T19:10:28.837Z,16.30
2018-03-24T19:12:56.344Z,19.07
2018-03-24T19:15:23.928Z,19.03
2018-03-24T19:17:51.517Z,18.73
2018-03-24T19:20:19.050Z,18.13
2018-03-24T19:22:47.421Z,24.17
2018-03-24T19:25:14.924Z,18.70
2018-03-24T19:27:42.442Z,21.30
2018-03-24T19:30:09.968Z,19.20
2018-03-24T19:32:37.614Z,17.60
2018-03-24T19:35:05.119Z,20.07
2018-03-24T19:37:32.723Z,19.67
2018-03-24T19:40:00.252Z,19.20
2018-03-24T19:42:27.789Z,20.10
2018-03-24T19:44:55.284Z,18.60
2018-03-24T19:47:22.813Z,19.27
2018-03-24T19:49:50.332Z,22.23
2018-03-24T19:52:17.851Z,15.17
2018-03-24T19:54:45.372Z,18.93
2018-03-24T19:57:12.878Z,16.50
2018-03-24T19:59:40.403Z,20.40
2018-03-24T20:02:08.015Z,18.43
2018-03-24T20:04:36.208Z,18.03
2018-03-24T20:07:03.724Z,18.60
2018-03-24T20:09:31.271Z,21.30
2018-03-24T20:11:58.780Z,19.33
2018-03-24T20:14:26.317Z,19.53
2018-03-24T20:16:53.810Z,21.63
2018-03-24T20:19:21.317Z,22.10
2018-03-24T20:21:48.881Z,19.90
2018-03-24T20:24:39.834Z,19.30
2018-03-24T20:27:07.379Z,21.90
2018-03-24T20:29:34.995Z,19.83
2018-03-24T20:32:02.603Z,20.53
2018-03-24T20:34:30.168Z,19.40
2018-03-24T20:36:57.751Z,18.97
2018-03-24T20:39:25.271Z,19.30
2018-03-24T20:41:52.839Z,21.40
2018-03-24T20:44:20.357Z,24.63
2018-03-24T20:46:47.855Z,20.70
2018-03-24T20:49:15.382Z,24.87
2018-03-24T20:51:42.915Z,21.97
2018-03-24T20:54:10.408Z,20.90
2018-03-24T20:56:37.931Z,25.37
2018-03-24T20:59:05.429Z,23.17
2018-03-24T21:01:32.912Z,26.27
2018-03-24T21:04:00.421Z,26.63
2018-03-24T21:06:27.962Z,20.47
2018-03-24T21:08:55.460Z,22.13
2018-03-24T21:11:22.963Z,24.63
2018-03-24T21:13:50.483Z,23.07
2018-03-24T21:16:17.980Z,21.17
2018-03-24T21:18:45.538Z,21.70
2018-03-24T21:21:13.076Z,24.83
2018-03-24T21:23:40.592Z,25.77
2018-03-24T21:26:08.093Z,24.30
2018-03-24T21:28:35.582Z,23.23
2018-03-24T21:31:03.125Z,24.73
2018-03-24T21:33:30.660Z,25.30
2018-03-24T21:35:58.162Z,23.83
2018-03-24T21:38:25.681Z,25.50
2018-03-24T21:40:53.822Z,28.10
2018-03-24T21:43:21.498Z,29.13
2018-03-24T21:45:49.145Z,27.63
2018-03-24T21:48:16.659Z,28.63
2018-03-24T21:50:44.206Z,25.70
2018-03-24T21:53:11.717Z,27.40
2018-03-24T21:55:39.503Z,26.63
2018-03-24T21:58:07.112Z,24.33
2018-03-24T22:00:34.615Z,26.47
2018-03-24T22:03:02.130Z,29.50
2018-03-24T22:05:29.714Z,24.23
2018-03-24T22:07:57.332Z,25.73
2018-03-24T22:10:24.829Z,27.17
2018-03-24T22:12:52.391Z,27.00
2018-03-24T22:15:19.908Z,32.53
2018-03-24T22:17:47.834Z,30.50
2018-03-24T22:20:15.371Z,30.50
2018-03-24T22:22:42.895Z,33.37
2018-03-24T22:25:10.405Z,32.13
2018-03-24T22:27:38.001Z,30.17
2018-03-24T22:30:05.519Z,32.40
2018-03-24T22:32:33.028Z,31.60
2018-03-24T22:35:00.524Z,33.10
2018-03-24T22:37:28.090Z,31.87
2018-03-24T22:39:55.635Z,29.33
2018-03-24T22:42:23.235Z,33.40
2018-03-24T22:44:50.766Z,36.20
2018-03-24T22:47:18.312Z,33.93
2018-03-24T22:49:45.824Z,33.83
2018-03-24T22:52:13.348Z,35.67
2018-03-24T22:54:40.866Z,33.83
2018-03-24T22:57:08.378Z,39.83
2018-03-24T22:59:35.915Z,35.60
2018-03-24T23:02:03.428Z,37.67
2018-03-24T23:04:30.944Z,36.30
2018-03-24T23:06:58.445Z,38.57
2018-03-24T23:09:25.964Z,40.23
2018-03-24T23:11:53.511Z,36.07
2018-03-24T23:14:21.062Z,41.97
2018-03-24T23:16:48.595Z,40.07
2018-03-24T23:19:16.109Z,40.83
2018-03-24T23:21:43.627Z,43.33
2018-03-24T23:24:11.113Z,41.03
2018-03-24T23:26:38.633Z,40.50
2018-03-24T23:29:06.136Z,43.60
2018-03-24T23:31:33.662Z,46.07
2018-03-24T23:34:01.182Z,43.10
2018-03-24T23:36:28.720Z,49.70
2018-03-24T23:38:56.235Z,45.73
2018-03-24T23:41:23.735Z,45.17
2018-03-24T23:43:51.258Z,47.60
2018-03-24T23:46:18.752Z,48.23
2018-03-24T23:48:46.232Z,46.93
2018-03-24T23:51:13.725Z,42.40
2018-03-24T23:53:41.225Z,43.00
2018-03-24T23:56:08.763Z,41.47
2018-03-24T23:58:36.301Z,46.67
